createdAt,value
2023-07-04T00:04:35.315Z,14.29379
2023-07-04T00:09:47.557Z,14.26161
2023-07-04T00:14:59.832Z,14.19726
2023-07-04T00:20:14.300Z,14.16508
2023-07-04T00:25:27.258Z,14.15436
2023-07-04T00:30:39.444Z,14.16508
2023-07-04T00:35:51.753Z,14.15436
2023-07-04T00:41:06.556Z,14.20798
2023-07-04T00:46:18.678Z,14.28306
2023-07-04T00:51:30.801Z,14.34741
2023-07-04T00:56:42.849Z,14.41176
2023-07-04T01:01:55.016Z,14.52974
2023-07-04T01:07:07.804Z,14.61554
2023-07-04T01:12:20.035Z,14.70134
2023-07-04T01:17:32.336Z,14.79786
2023-07-04T01:22:44.660Z,14.86221
2023-07-04T01:27:56.933Z,14.94801
2023-07-04T01:33:09.232Z,15.04454
2023-07-04T01:38:21.346Z,15.10889
2023-07-04T01:43:34.545Z,15.19469
2023-07-04T01:48:48.489Z,15.24832
2023-07-04T19:56:26.617Z,19.43111
2023-07-04T20:01:39.330Z,19.24878
2023-07-04T20:06:51.995Z,18.9592
2023-07-04T20:17:21.911Z,18.616
2023-07-04T20:22:34.119Z,18.54092
2023-07-04T20:27:46.338Z,18.41222
2023-07-04T20:32:58.626Z,18.26207
2023-07-04T20:38:11.431Z,18.06902
2023-07-04T20:43:23.535Z,17.89742
2023-07-04T20:48:35.557Z,17.76871
2023-07-04T20:53:47.578Z,17.60784
2023-07-04T20:58:59.678Z,17.43623
2023-07-04T21:04:11.825Z,17.24319
2023-07-04T21:09:24.934Z,17.08231
2023-07-04T21:14:37.628Z,16.89998
2023-07-04T21:19:49.771Z,16.72838
2023-07-04T21:25:02.011Z,16.58895
2023-07-04T21:30:14.267Z,16.49243
2023-07-04T21:35:26.564Z,16.41735
2023-07-04T21:40:38.971Z,16.353
2023-07-04T21:45:51.501Z,16.25648
2023-07-04T21:51:03.779Z,16.19213
2023-07-04T21:56:16.692Z,16.08487
2023-07-04T22:01:29.003Z,15.94545
2023-07-04T22:06:41.325Z,15.80602
2023-07-04T22:11:54.448Z,15.64515
2023-07-04T22:17:08.349Z,15.48427
2023-07-04T22:22:21.887Z,15.32339
2023-07-04T22:27:33.995Z,15.14107
2023-07-04T22:32:46.263Z,14.95874
2023-07-04T22:37:58.533Z,14.77641
2023-07-04T22:48:28.526Z,14.42249
2023-07-04T22:53:40.848Z,14.28306
2023-07-04T22:58:53.610Z,14.13291
2023-07-04T23:04:05.848Z,14.02566
2023-07-04T23:09:18.100Z,13.88623
2023-07-04T23:14:31.841Z,13.75753
2023-07-04T23:19:44.057Z,13.6181
2023-07-04T23:24:56.218Z,13.50013
2023-07-04T23:30:08.438Z,13.55375
2023-07-04T23:35:21.632Z,13.51085
2023-07-04T23:45:51.736Z,13.62883
2023-07-04T23:51:05.009Z,13.73608
2023-07-04T23:56:26.454Z,13.85405
